Time;durP1;ratioP1;P1;durP2;ratioP2;P2;SDS_P1;SDS_P2;PMS_P1;PMS_P2;Temp;Humidity;BMP_temperature;BMP_pressure;BME280_temperature;BME280_humidity;BME280_pressure;Samples;Min_cycle;Max_cycle;Signal;HPM_P1;HPM_P2
2023/06/09 00:01:18;;;;;;;5.53;4.85;;;18.60;99.90;;;;;;4991014;28;20037;-66
2023/06/09 00:03:46;;;;;;;5.63;4.63;;;18.60;99.90;;;;;;4989904;28;20038;-64
2023/06/09 00:06:12;;;;;;;7.80;4.70;;;18.60;99.90;;;;;;4990414;28;20046;-63
2023/06/09 00:08:38;;;;;;;4.70;4.30;;;18.60;99.90;;;;;;4989758;28;20034;-66
2023/06/09 00:11:04;;;;;;;6.85;4.80;;;18.60;99.90;;;;;;4991752;28;20044;-66
2023/06/09 00:13:30;;;;;;;5.78;4.55;;;18.60;99.90;;;;;;4993449;28;20434;-65
2023/06/09 00:15:55;;;;;;;7.60;4.72;;;18.60;99.90;;;;;;4989691;28;20092;-65
2023/06/09 00:18:24;;;;;;;5.47;4.38;;;18.60;99.90;;;;;;4993665;28;20390;-65
2023/06/09 00:20:51;;;;;;;5.25;4.60;;;18.60;99.90;;;;;;4989249;28;20057;-65
2023/06/09 00:23:16;;;;;;;7.28;4.13;;;18.70;99.90;;;;;;4989416;28;20059;-65
2023/06/09 00:25:42;;;;;;;5.55;4.70;;;18.70;99.90;;;;;;4994605;28;20046;-65
2023/06/09 00:28:09;;;;;;;5.00;4.53;;;18.80;99.90;;;;;;4990024;28;20625;-65
2023/06/09 00:30:35;;;;;;;7.90;4.68;;;18.90;99.90;;;;;;4989327;28;20034;-65
2023/06/09 00:33:01;;;;;;;5.68;4.80;;;18.90;99.90;;;;;;4992176;28;20042;-65
2023/06/09 00:35:26;;;;;;;14.35;4.75;;;18.90;99.90;;;;;;4990613;28;20058;-64
2023/06/09 00:37:52;;;;;;;6.15;4.60;;;18.80;99.90;;;;;;4995183;28;20474;-64
2023/06/09 00:40:20;;;;;;;6.72;4.68;;;18.80;99.90;;;;;;4987543;28;20026;-65
2023/06/09 00:42:46;;;;;;;6.63;4.20;;;18.80;99.90;;;;;;4994089;28;20086;-65
2023/06/09 00:45:13;;;;;;;5.30;4.40;;;18.80;99.90;;;;;;4989056;28;20564;-65
2023/06/09 00:47:38;;;;;;;7.13;4.38;;;18.80;99.90;;;;;;4987577;28;20121;-68
2023/06/09 00:50:04;;;;;;;9.32;4.90;;;18.80;99.90;;;;;;4991591;28;20041;-67
2023/06/09 00:52:30;;;;;;;6.15;4.63;;;18.80;99.90;;;;;;4987586;28;20042;-67
2023/06/09 00:54:56;;;;;;;6.78;4.50;;;18.80;99.90;;;;;;4991716;28;20057;-66
2023/06/09 00:57:23;;;;;;;7.50;4.75;;;18.80;99.90;;;;;;4993049;28;20659;-65
2023/06/09 00:59:49;;;;;;;9.60;4.70;;;18.80;99.90;;;;;;4989137;28;20060;-66
2023/06/09 01:02:15;;;;;;;8.88;4.97;;;18.70;99.90;;;;;;4988690;28;20038;-65
2023/06/09 01:04:49;;;;;;;10.00;4.78;;;18.80;99.90;;;;;;4990230;28;20506;-65
2023/06/09 01:07:44;;;;;;;6.45;5.22;;;18.80;99.90;;;;;;4993715;28;20053;-66
2023/06/09 01:10:30;;;;;;;6.47;4.80;;;18.80;99.90;;;;;;4986136;28;20052;-66
2023/06/09 01:13:22;;;;;;;8.43;5.00;;;18.90;99.90;;;;;;4991173;28;20049;-65
2023/06/09 01:15:55;;;;;;;5.00;4.50;;;18.90;99.90;;;;;;4995042;28;20801;-66
2023/06/09 01:18:24;;;;;;;5.15;4.47;;;19.00;99.90;;;;;;4995127;28;20030;-66
2023/06/09 01:21:00;;;;;;;6.35;5.18;;;19.00;99.90;;;;;;4990994;28;20146;-66
2023/06/09 01:23:52;;;;;;;13.48;5.35;;;18.90;99.90;;;;;;4991151;28;20021;-69
2023/06/09 01:26:18;;;;;;;;;;;18.90;99.90;;;;;;4989586;28;20040;-68
2023/06/09 01:28:47;;;;;;;6.97;4.97;;;18.80;99.90;;;;;;4994935;28;20381;-68
2023/06/09 01:31:15;;;;;;;9.05;5.25;;;18.60;99.90;;;;;;4982870;28;20568;-68
2023/06/09 01:33:42;;;;;;;6.53;4.88;;;18.70;99.90;;;;;;4990977;28;20045;-70
2023/06/09 01:36:08;;;;;;;7.55;5.63;;;18.80;99.90;;;;;;4992245;28;20060;-68
2023/06/09 01:38:34;;;;;;;6.22;5.63;;;18.90;99.90;;;;;;4988331;28;20030;-66
2023/06/09 01:41:00;;;;;;;9.30;5.68;;;18.90;99.90;;;;;;4994365;28;20057;-66
2023/06/09 01:43:26;;;;;;;6.60;6.00;;;18.90;99.90;;;;;;4995596;28;20105;-66
2023/06/09 01:45:52;;;;;;;6.75;6.00;;;19.00;99.90;;;;;;4993743;28;20046;-66
2023/06/09 01:48:41;;;;;;;8.73;5.70;;;19.00;99.90;;;;;;4994134;28;20092;-66
2023/06/09 01:51:24;;;;;;;7.03;5.90;;;19.00;99.90;;;;;;4993484;28;20589;-67
2023/06/09 01:53:56;;;;;;;6.68;6.07;;;18.90;99.90;;;;;;4991923;28;20096;-67
2023/06/09 01:56:28;;;;;;;6.00;5.40;;;18.90;99.90;;;;;;4992679;28;20053;-65
2023/06/09 01:58:57;;;;;;;7.22;6.22;;;18.90;99.90;;;;;;4983090;28;20044;-64
2023/06/09 02:01:26;;;;;;;7.25;6.47;;;18.90;99.90;;;;;;4984694;28;20041;-65
2023/06/09 02:03:54;;;;;;;6.78;5.88;;;18.90;99.90;;;;;;4990424;28;20054;-65
2023/06/09 02:06:21;;;;;;;7.47;6.47;;;18.90;99.90;;;;;;4995160;28;20107;-64
2023/06/09 02:08:47;;;;;;;7.47;5.90;;;18.90;99.90;;;;;;4998033;28;20049;-64
2023/06/09 02:11:13;;;;;;;9.10;5.75;;;18.90;99.90;;;;;;4993501;28;20058;-64
2023/06/09 02:13:39;;;;;;;8.52;6.07;;;18.90;99.90;;;;;;4996971;28;20034;-64
2023/06/09 02:16:05;;;;;;;7.57;6.78;;;18.70;99.90;;;;;;4989294;28;20525;-68
2023/06/09 02:18:32;;;;;;;8.07;7.00;;;18.80;99.90;;;;;;4986366;28;20153;-64
2023/06/09 02:20:58;;;;;;;7.50;6.90;;;18.80;99.90;;;;;;4980568;28;20116;-64
2023/06/09 02:23:24;;;;;;;7.55;6.78;;;18.90;99.90;;;;;;4989443;28;20125;-65
2023/06/09 02:25:50;;;;;;;7.85;7.05;;;18.90;99.90;;;;;;4989065;28;21633;-64
2023/06/09 02:28:17;;;;;;;7.20;6.50;;;18.90;99.90;;;;;;4990931;28;20026;-64
2023/06/09 02:30:43;;;;;;;6.70;5.85;;;18.90;99.90;;;;;;4979059;28;20037;-64
2023/06/09 02:33:10;;;;;;;6.13;5.57;;;19.00;99.90;;;;;;4986880;28;20026;-64
2023/06/09 02:35:36;;;;;;;8.20;5.22;;;19.00;99.90;;;;;;4981011;28;20131;-67
2023/06/09 02:38:08;;;;;;;6.97;5.75;;;19.00;99.90;;;;;;4984463;28;20042;-66
2023/06/09 02:40:33;;;;;;;;;;;19.00;99.90;;;;;;4992444;28;20043;-67
2023/06/09 02:42:59;;;;;;;6.20;5.68;;;19.00;99.90;;;;;;4989434;28;19917;-67
2023/06/09 02:45:26;;;;;;;8.48;6.47;;;19.00;99.90;;;;;;4981971;28;20043;-66
2023/06/09 02:47:51;;;;;;;8.07;6.55;;;19.00;99.90;;;;;;4981991;28;20108;-66
2023/06/09 02:50:18;;;;;;;7.32;6.38;;;19.00;99.90;;;;;;4981026;28;20096;-66
2023/06/09 02:52:44;;;;;;;6.88;6.15;;;18.90;99.90;;;;;;4991279;28;20045;-66
2023/06/09 02:55:11;;;;;;;7.05;6.35;;;19.00;99.90;;;;;;4989049;28;20512;-66
2023/06/09 02:57:36;;;;;;;7.05;6.10;;;19.00;99.90;;;;;;4986990;28;20152;-66
2023/06/09 03:00:04;;;;;;;7.47;6.80;;;18.90;99.90;;;;;;4988192;28;20100;-66
2023/06/09 03:02:30;;;;;;;8.63;6.68;;;19.00;99.90;;;;;;4986018;28;20042;-66
2023/06/09 03:04:56;;;;;;;8.75;8.05;;;19.00;99.90;;;;;;4988656;28;20041;-66
2023/06/09 03:07:22;;;;;;;9.18;8.38;;;18.90;99.90;;;;;;4994502;28;20477;-66
2023/06/09 03:09:48;;;;;;;9.45;8.20;;;18.80;99.90;;;;;;4992178;28;20142;-66
2023/06/09 03:12:13;;;;;;;9.05;8.25;;;18.80;99.90;;;;;;4996089;28;20039;-66
2023/06/09 03:14:39;;;;;;;8.38;7.65;;;18.80;99.90;;;;;;4994060;28;20061;-66
2023/06/09 03:17:05;;;;;;;9.13;7.57;;;18.80;99.90;;;;;;4974780;28;20045;-65
2023/06/09 03:19:31;;;;;;;8.77;7.88;;;18.80;99.90;;;;;;4991655;28;20753;-66
2023/06/09 03:21:57;;;;;;;8.80;7.95;;;18.80;99.90;;;;;;4976546;28;20600;-66
2023/06/09 03:24:23;;;;;;;9.75;8.80;;;18.80;99.90;;;;;;4994809;28;20730;-66
2023/06/09 03:26:49;;;;;;;9.57;8.52;;;18.80;99.90;;;;;;4994089;28;20058;-66
2023/06/09 03:29:15;;;;;;;9.40;8.50;;;18.90;99.90;;;;;;4995467;28;20373;-66
2023/06/09 03:31:41;;;;;;;11.68;8.07;;;18.90;99.90;;;;;;4993923;28;20081;-66
2023/06/09 03:34:07;;;;;;;9.60;8.63;;;18.90;99.90;;;;;;4991215;28;21417;-66
2023/06/09 03:36:35;;;;;;;10.57;8.60;;;18.90;99.90;;;;;;4994691;28;20100;-66
2023/06/09 03:39:02;;;;;;;10.00;8.20;;;19.00;99.90;;;;;;4992903;28;20034;-66
2023/06/09 03:41:28;;;;;;;9.95;7.78;;;19.00;99.90;;;;;;4989914;28;20526;-66
2023/06/09 03:43:54;;;;;;;8.80;7.07;;;19.00;99.90;;;;;;4990040;28;20101;-66
2023/06/09 03:46:20;;;;;;;8.32;7.35;;;19.00;99.90;;;;;;4971260;28;20054;-66
2023/06/09 03:48:46;;;;;;;10.15;8.18;;;18.90;99.90;;;;;;4993283;28;20042;-66
2023/06/09 03:51:12;;;;;;;12.80;8.10;;;19.00;99.90;;;;;;4991705;28;20060;-66
2023/06/09 03:53:37;;;;;;;8.70;7.90;;;18.90;99.90;;;;;;4992628;28;20573;-66
2023/06/09 03:56:03;;;;;;;8.88;7.97;;;18.90;99.90;;;;;;4994790;28;20729;-66
2023/06/09 03:58:29;;;;;;;8.80;7.93;;;18.90;99.90;;;;;;4988133;28;20045;-66
2023/06/09 04:00:55;;;;;;;8.88;7.97;;;18.90;99.90;;;;;;4988283;28;20057;-66
2023/06/09 04:03:20;;;;;;;8.20;7.50;;;19.00;99.90;;;;;;4984696;28;20041;-66
2023/06/09 04:05:47;;;;;;;9.13;8.32;;;19.00;99.90;;;;;;4995926;28;20101;-66
2023/06/09 04:08:13;;;;;;;9.40;8.43;;;19.00;99.90;;;;;;4999454;28;20603;-66
2023/06/09 04:10:40;;;;;;;9.52;8.68;;;19.00;99.90;;;;;;4989678;28;20046;-66
2023/06/09 04:13:05;;;;;;;10.60;9.63;;;19.10;99.90;;;;;;4986356;28;20026;-66
2023/06/09 04:15:31;;;;;;;10.90;9.90;;;19.10;99.90;;;;;;4996429;28;20580;-66
2023/06/09 04:17:58;;;;;;;10.75;9.52;;;19.10;99.90;;;;;;4989408;28;20095;-66
2023/06/09 04:20:24;;;;;;;11.20;10.10;;;19.10;99.90;;;;;;4987937;28;20165;-66
2023/06/09 04:22:51;;;;;;;11.73;10.73;;;19.20;99.90;;;;;;4996855;28;20038;-66
2023/06/09 04:25:19;;;;;;;10.70;9.15;;;19.20;99.90;;;;;;4990964;28;20096;-64
2023/06/09 04:27:45;;;;;;;11.27;9.50;;;19.20;99.90;;;;;;4992246;28;20049;-65
2023/06/09 04:30:11;;;;;;;11.63;9.20;;;19.20;99.90;;;;;;4989393;28;20038;-64
2023/06/09 04:32:37;;;;;;;9.73;8.93;;;19.20;99.90;;;;;;4993708;28;20786;-64
2023/06/09 04:35:03;;;;;;;9.40;8.55;;;19.20;99.90;;;;;;4993123;28;20042;-64
2023/06/09 04:37:30;;;;;;;8.60;7.80;;;19.20;99.90;;;;;;4993446;28;20159;-64
2023/06/09 04:39:56;;;;;;;9.05;8.15;;;19.30;99.90;;;;;;4990642;28;20048;-64
2023/06/09 04:42:22;;;;;;;10.05;7.95;;;19.30;99.90;;;;;;4995913;28;20133;-64
2023/06/09 04:44:49;;;;;;;10.13;7.97;;;19.30;99.90;;;;;;4997248;28;20029;-67
2023/06/09 04:47:18;;;;;;;10.23;7.85;;;19.30;99.90;;;;;;4992767;28;20057;-68
2023/06/09 04:49:46;;;;;;;8.57;7.82;;;19.20;99.90;;;;;;4984299;28;20034;-68
2023/06/09 04:52:17;;;;;;;9.15;8.15;;;19.20;99.90;;;;;;4995430;28;20097;-67
2023/06/09 04:54:44;;;;;;;8.65;7.68;;;19.20;99.90;;;;;;4990991;28;20410;-68
2023/06/09 04:57:10;;;;;;;8.45;7.40;;;19.10;99.90;;;;;;4989902;28;20265;-68
2023/06/09 04:59:40;;;;;;;8.60;6.82;;;19.10;99.90;;;;;;4996485;28;20018;-67
2023/06/09 05:02:08;;;;;;;8.80;8.00;;;19.00;99.90;;;;;;4992849;28;20128;-64
2023/06/09 05:04:34;;;;;;;6.65;5.55;;;19.10;99.90;;;;;;4996044;28;20081;-64
2023/06/09 05:07:01;;;;;;;8.10;6.25;;;19.10;99.90;;;;;;4993873;28;20083;-65
2023/06/09 05:09:27;;;;;;;10.63;6.53;;;19.10;99.90;;;;;;4991730;28;20092;-65
2023/06/09 05:11:53;;;;;;;7.25;6.55;;;19.10;99.90;;;;;;4994435;28;20650;-64
2023/06/09 05:14:19;;;;;;;6.43;5.18;;;19.10;99.90;;;;;;4988678;28;20041;-65
2023/06/09 05:16:45;;;;;;;6.53;5.70;;;19.10;99.90;;;;;;4988087;28;20096;-65
2023/06/09 05:19:11;;;;;;;5.70;5.20;;;19.10;99.90;;;;;;4990364;28;20456;-65
2023/06/09 05:21:37;;;;;;;7.22;5.75;;;19.20;99.90;;;;;;4991365;28;20442;-65
2023/06/09 05:24:03;;;;;;;6.95;5.45;;;19.20;99.90;;;;;;4989107;28;20044;-64
2023/06/09 05:26:29;;;;;;;7.07;5.28;;;19.20;99.90;;;;;;4983811;28;20053;-64
2023/06/09 05:28:55;;;;;;;8.73;4.60;;;19.30;99.90;;;;;;4975371;28;20078;-65
2023/06/09 05:31:21;;;;;;;5.95;4.25;;;19.30;99.90;;;;;;4988595;28;20722;-64
2023/06/09 05:33:46;;;;;;;3.70;3.40;;;19.30;99.90;;;;;;4986902;28;20034;-65
2023/06/09 05:36:12;;;;;;;3.72;3.40;;;19.40;99.90;;;;;;4989259;28;20953;-65
2023/06/09 05:38:38;;;;;;;3.65;2.95;;;19.50;99.90;;;;;;4989531;28;20017;-65
2023/06/09 05:41:03;;;;;;;3.15;2.92;;;19.50;99.90;;;;;;4989294;28;20045;-65
2023/06/09 05:43:29;;;;;;;4.38;3.17;;;19.60;99.90;;;;;;4994208;28;20688;-65
2023/06/09 05:45:57;;;;;;;3.53;2.45;;;19.70;99.90;;;;;;4996148;28;20499;-66
2023/06/09 05:48:23;;;;;;;2.42;2.22;;;19.70;99.90;;;;;;5000865;28;20045;-65
2023/06/09 05:50:49;;;;;;;2.35;2.15;;;19.80;99.90;;;;;;4993340;28;20038;-65
2023/06/09 05:53:16;;;;;;;2.63;2.03;;;19.80;99.90;;;;;;5002063;28;20037;-65
2023/06/09 05:55:44;;;;;;;1.98;1.88;;;19.90;99.90;;;;;;4992542;28;21382;-65
2023/06/09 05:58:11;;;;;;;2.35;2.10;;;19.80;99.90;;;;;;4996518;28;20171;-66
2023/06/09 06:00:37;;;;;;;5.22;2.30;;;19.80;99.90;;;;;;4992134;28;20116;-65
2023/06/09 06:03:03;;;;;;;3.47;2.35;;;19.80;99.90;;;;;;4998676;28;20067;-66
2023/06/09 06:05:29;;;;;;;1.95;1.67;;;19.80;99.90;;;;;;4995883;28;20870;-66
2023/06/09 06:07:57;;;;;;;1.70;1.60;;;19.80;99.90;;;;;;4999191;28;20042;-65
2023/06/09 06:10:22;;;;;;;2.25;2.05;;;19.80;99.90;;;;;;4996836;28;20125;-65
2023/06/09 06:12:48;;;;;;;2.42;1.80;;;19.80;99.90;;;;;;4993660;28;20856;-65
2023/06/09 06:15:14;;;;;;;2.88;2.00;;;19.70;99.90;;;;;;4996113;28;20041;-66
2023/06/09 06:17:40;;;;;;;2.40;2.30;;;19.70;99.90;;;;;;4998148;28;20115;-66
2023/06/09 06:20:06;;;;;;;2.28;2.08;;;19.70;99.90;;;;;;4995649;28;20068;-65
2023/06/09 06:22:32;;;;;;;3.10;2.80;;;19.70;99.90;;;;;;4998671;28;20121;-66
2023/06/09 06:24:57;;;;;;;3.40;3.10;;;19.70;99.90;;;;;;4991178;28;20541;-66
2023/06/09 06:27:23;;;;;;;5.18;3.08;;;19.80;99.90;;;;;;4997436;28;20058;-66
2023/06/09 06:29:49;;;;;;;3.65;2.83;;;19.80;99.90;;;;;;4997476;28;20117;-66
2023/06/09 06:32:14;;;;;;;3.05;2.85;;;19.70;99.90;;;;;;4973319;28;20782;-66
2023/06/09 06:34:41;;;;;;;3.22;2.92;;;19.70;99.90;;;;;;4997188;28;20040;-65
2023/06/09 06:37:06;;;;;;;3.28;2.97;;;19.70;99.90;;;;;;4991756;28;20033;-66
2023/06/09 06:39:32;;;;;;;4.80;3.40;;;19.70;99.90;;;;;;4979999;28;20479;-65
2023/06/09 06:41:57;;;;;;;4.38;3.97;;;19.70;99.90;;;;;;4993999;28;20047;-65
2023/06/09 06:44:23;;;;;;;4.65;4.25;;;19.60;99.90;;;;;;4984254;28;20045;-65
2023/06/09 06:46:49;;;;;;;5.85;5.03;;;19.70;99.90;;;;;;4983228;28;20049;-66
2023/06/09 06:49:14;;;;;;;6.13;4.70;;;19.60;99.90;;;;;;4990121;28;20046;-65
2023/06/09 06:51:41;;;;;;;5.90;5.30;;;19.70;99.90;;;;;;4988970;28;20096;-65
2023/06/09 06:54:06;;;;;;;6.32;5.63;;;19.60;99.90;;;;;;4988866;28;20042;-65
2023/06/09 06:56:32;;;;;;;7.75;7.03;;;19.70;99.90;;;;;;4983325;28;20045;-66
2023/06/09 06:58:58;;;;;;;8.80;5.72;;;19.70;99.90;;;;;;4993326;28;20030;-65
2023/06/09 07:01:25;;;;;;;5.95;5.45;;;19.70;99.90;;;;;;4986629;28;20010;-65
2023/06/09 07:03:50;;;;;;;5.95;5.38;;;19.70;99.90;;;;;;4989363;28;20034;-65
2023/06/09 07:06:17;;;;;;;7.05;5.70;;;19.70;99.90;;;;;;4985273;28;20046;-65
2023/06/09 07:08:43;;;;;;;6.32;5.70;;;19.70;99.90;;;;;;4984149;28;20041;-65
2023/06/09 07:11:09;;;;;;;7.18;6.57;;;19.70;99.90;;;;;;4979295;28;20117;-67
2023/06/09 07:13:35;;;;;;;7.53;6.85;;;19.70;99.90;;;;;;4996110;28;20038;-66
2023/06/09 07:16:02;;;;;;;8.88;7.60;;;19.70;99.90;;;;;;4989134;28;20081;-66
2023/06/09 07:18:28;;;;;;;8.13;7.32;;;19.70;99.90;;;;;;4978927;28;20211;-67
2023/06/09 07:20:53;;;;;;;10.10;7.30;;;19.70;99.90;;;;;;4986305;28;20041;-63
2023/06/09 07:23:19;;;;;;;14.68;7.63;;;19.70;99.90;;;;;;4959229;28;20030;-66
2023/06/09 07:25:45;;;;;;;10.15;7.40;;;19.70;99.90;;;;;;4981500;28;20580;-66
2023/06/09 07:28:11;;;;;;;7.80;7.03;;;19.60;99.90;;;;;;4983531;28;20954;-66
2023/06/09 07:30:40;;;;;;;8.32;7.53;;;19.60;99.90;;;;;;4978606;28;20128;-66
2023/06/09 07:33:06;;;;;;;8.88;7.47;;;19.60;99.90;;;;;;4990423;28;20091;-66
2023/06/09 07:35:32;;;;;;;7.57;6.85;;;19.60;99.90;;;;;;4997298;28;20026;-65
2023/06/09 07:37:58;;;;;;;8.18;7.38;;;19.60;99.90;;;;;;4987866;28;20153;-65
2023/06/09 07:40:24;;;;;;;9.38;8.45;;;19.60;99.90;;;;;;4974591;28;20049;-65
2023/06/09 07:42:49;;;;;;;9.30;8.27;;;19.60;99.90;;;;;;4996287;28;20062;-65
2023/06/09 07:45:15;;;;;;;10.20;9.18;;;19.60;99.90;;;;;;4995542;28;20269;-66
2023/06/09 07:47:41;;;;;;;9.32;8.35;;;19.60;99.90;;;;;;4992282;28;20121;-66
2023/06/09 07:50:07;;;;;;;9.45;8.52;;;19.60;99.90;;;;;;4988295;28;20045;-65
2023/06/09 07:52:33;;;;;;;8.48;7.68;;;19.50;99.90;;;;;;4980931;28;20061;-67
2023/06/09 07:54:59;;;;;;;9.18;8.30;;;19.30;99.90;;;;;;4967881;28;20034;-66
2023/06/09 07:57:25;;;;;;;9.20;7.82;;;19.20;99.90;;;;;;4989664;28;20123;-67
2023/06/09 07:59:50;;;;;;;10.20;7.50;;;19.00;99.90;;;;;;4986822;28;20042;-66
2023/06/09 08:02:16;;;;;;;8.25;7.55;;;18.90;99.90;;;;;;4984980;28;20095;-67
2023/06/09 08:04:42;;;;;;;8.90;8.10;;;18.90;99.90;;;;;;4979638;28;20038;-66
2023/06/09 08:07:08;;;;;;;12.75;8.88;;;18.80;99.90;;;;;;4995203;28;20502;-65
2023/06/09 08:09:34;;;;;;;9.35;8.55;;;18.90;99.90;;;;;;4983356;28;20030;-65
2023/06/09 08:12:00;;;;;;;9.63;8.82;;;18.90;99.90;;;;;;4991631;28;20041;-65
2023/06/09 08:14:25;;;;;;;10.05;9.05;;;19.00;99.90;;;;;;4995784;28;20875;-65
2023/06/09 08:16:52;;;;;;;9.32;8.40;;;19.00;99.90;;;;;;4985128;28;20131;-65
2023/06/09 08:19:18;;;;;;;9.07;8.38;;;19.10;99.90;;;;;;4989288;28;20530;-65
2023/06/09 08:21:43;;;;;;;9.80;8.80;;;19.10;99.90;;;;;;4979612;28;20102;-66
2023/06/09 08:24:13;;;;;;;11.32;10.32;;;19.10;99.90;;;;;;4986022;28;20136;-66
2023/06/09 08:26:40;;;;;;;9.90;8.88;;;19.10;99.90;;;;;;4988172;28;20104;-65
2023/06/09 08:29:06;;;;;;;11.20;10.20;;;19.10;99.90;;;;;;4993244;28;20103;-65
2023/06/09 08:31:32;;;;;;;10.35;9.55;;;19.10;99.90;;;;;;4991837;28;20049;-65
2023/06/09 08:33:58;;;;;;;10.93;9.85;;;19.20;99.90;;;;;;4984734;28;20041;-65
2023/06/09 08:36:25;;;;;;;10.60;9.35;;;19.10;99.90;;;;;;4978754;28;20400;-66
2023/06/09 08:38:50;;;;;;;10.02;9.13;;;19.20;99.90;;;;;;4996350;28;20029;-65
2023/06/09 08:41:17;;;;;;;9.68;8.82;;;19.10;99.90;;;;;;4989544;28;20061;-65
2023/06/09 08:43:42;;;;;;;9.38;8.57;;;19.20;99.90;;;;;;4987042;28;20505;-65
2023/06/09 08:46:11;;;;;;;9.25;8.48;;;19.20;99.90;;;;;;4993248;28;20038;-66
2023/06/09 08:48:49;;;;;;;9.80;9.02;;;19.20;99.90;;;;;;4983581;28;20038;-65
2023/06/09 08:51:15;;;;;;;8.88;8.18;;;19.20;99.90;;;;;;4991121;28;20049;-66
2023/06/09 08:53:41;;;;;;;9.18;8.38;;;19.20;99.90;;;;;;4990216;28;20077;-65
2023/06/09 08:56:07;;;;;;;7.97;7.28;;;19.30;99.90;;;;;;4985896;28;20068;-66
2023/06/09 08:58:33;;;;;;;8.55;7.85;;;19.20;99.90;;;;;;4996677;28;20713;-66
2023/06/09 09:01:01;;;;;;;9.23;8.35;;;19.20;99.90;;;;;;4995354;28;20134;-65
2023/06/09 09:03:27;;;;;;;9.60;8.70;;;19.30;99.90;;;;;;4992388;28;20553;-65
2023/06/09 09:05:52;;;;;;;8.93;8.23;;;19.30;99.90;;;;;;4997035;28;20046;-65
2023/06/09 09:08:20;;;;;;;9.65;8.90;;;19.40;99.90;;;;;;4996388;28;20038;-65
2023/06/09 09:10:46;;;;;;;9.05;8.35;;;19.40;99.90;;;;;;4985223;28;20091;-65
2023/06/09 09:13:12;;;;;;;9.57;8.70;;;19.50;99.90;;;;;;5000948;28;20038;-65
2023/06/09 09:15:46;;;;;;;7.85;7.25;;;19.50;99.90;;;;;;4993347;28;20114;-65
2023/06/09 09:18:12;;;;;;;11.75;8.30;;;19.60;99.90;;;;;;4993470;28;20045;-65
2023/06/09 09:20:37;;;;;;;9.40;8.50;;;19.60;99.90;;;;;;4986132;28;20042;-65
2023/06/09 09:23:07;;;;;;;9.63;8.93;;;19.70;99.90;;;;;;4989615;28;20034;-66
2023/06/09 09:25:32;;;;;;;9.10;8.40;;;19.70;99.90;;;;;;4987867;28;20050;-66
2023/06/09 09:28:08;;;;;;;9.00;8.30;;;19.70;99.90;;;;;;4990357;28;20046;-67
2023/06/09 09:30:48;;;;;;;8.77;8.07;;;19.70;99.90;;;;;;4993982;28;20038;-65
2023/06/09 09:33:20;;;;;;;8.68;7.97;;;19.70;99.90;;;;;;4977408;28;20137;-65
2023/06/09 09:35:51;;;;;;;8.70;7.53;;;19.70;99.90;;;;;;4988083;28;20042;-65
2023/06/09 09:38:25;;;;;;;6.85;6.25;;;19.70;99.90;;;;;;4998407;28;21292;-66
2023/06/09 09:40:52;;;;;;;7.28;6.68;;;19.80;99.90;;;;;;5001032;28;20033;-66
2023/06/09 09:43:20;;;;;;;6.63;6.13;;;19.80;99.90;;;;;;4998183;28;20954;-66
2023/06/09 09:45:48;;;;;;;121.47;12.65;;;19.90;99.90;;;;;;4995904;28;20066;-66
2023/06/09 09:48:16;;;;;;;4.72;4.43;;;20.00;99.90;;;;;;4999312;28;20117;-66
2023/06/09 09:50:44;;;;;;;5.28;4.88;;;20.00;99.90;;;;;;4987231;28;20117;-66
2023/06/09 09:53:10;;;;;;;5.50;5.00;;;20.00;99.90;;;;;;4977673;28;20041;-66
2023/06/09 09:55:42;;;;;;;5.55;5.15;;;20.00;99.90;;;;;;4995682;28;20038;-66
2023/06/09 09:58:09;;;;;;;7.22;4.95;;;20.00;99.90;;;;;;4999287;28;20187;-65
2023/06/09 10:00:37;;;;;;;5.28;4.88;;;20.10;99.90;;;;;;4996759;28;20045;-65
2023/06/09 10:03:15;;;;;;;6.20;5.63;;;20.10;99.90;;;;;;4993371;28;20026;-65
2023/06/09 10:05:45;;;;;;;10.23;6.07;;;20.10;99.90;;;;;;4996001;28;20097;-65
2023/06/09 10:08:15;;;;;;;6.55;6.05;;;20.20;99.90;;;;;;5000597;28;20063;-65
2023/06/09 10:10:41;;;;;;;6.38;5.88;;;20.20;99.90;;;;;;4972499;28;21026;-65
2023/06/09 10:13:07;;;;;;;8.05;5.75;;;20.20;99.90;;;;;;4998389;28;20037;-65
2023/06/09 10:15:33;;;;;;;5.88;5.28;;;20.20;99.90;;;;;;4993982;28;20566;-66
2023/06/09 10:18:00;;;;;;;6.05;5.45;;;20.10;99.90;;;;;;4989023;28;20033;-66
2023/06/09 10:20:26;;;;;;;6.50;5.20;;;20.10;99.90;;;;;;4992753;28;20124;-66
2023/06/09 10:22:53;;;;;;;6.00;5.50;;;20.10;99.90;;;;;;4987851;28;20447;-65
2023/06/09 10:25:19;;;;;;;6.90;5.45;;;19.90;99.90;;;;;;4984733;28;20034;-65
2023/06/09 10:27:48;;;;;;;5.38;4.88;;;20.00;99.90;;;;;;4988298;28;20042;-65
2023/06/09 10:30:15;;;;;;;10.25;5.38;;;19.90;99.90;;;;;;4971238;28;20035;-65
2023/06/09 10:32:47;;;;;;;6.68;6.03;;;19.90;99.90;;;;;;4971306;28;21519;-66
2023/06/09 10:35:17;;;;;;;5.72;5.25;;;20.00;99.90;;;;;;4990164;28;20066;-66
2023/06/09 10:37:45;;;;;;;6.05;5.55;;;20.10;99.90;;;;;;4978882;28;20038;-66
2023/06/09 10:40:30;;;;;;;5.45;5.05;;;20.10;99.90;;;;;;4979957;28;20069;-66
2023/06/09 10:43:16;;;;;;;5.45;4.93;;;20.10;99.90;;;;;;4972649;28;20915;-66
2023/06/09 10:45:50;;;;;;;4.80;4.50;;;20.00;99.90;;;;;;4978450;28;21774;-66
2023/06/09 10:48:41;;;;;;;6.07;5.35;;;20.00;99.90;;;;;;4986606;28;20045;-66
2023/06/09 10:51:31;;;;;;;6.38;5.18;;;20.10;99.90;;;;;;4989398;28;20041;-65
2023/06/09 10:54:12;;;;;;;5.65;5.25;;;20.10;99.90;;;;;;4990993;28;20143;-65
2023/06/09 10:56:52;;;;;;;6.30;5.80;;;20.10;99.90;;;;;;4991051;28;20046;-65
2023/06/09 10:59:24;;;;;;;6.20;5.70;;;20.10;99.90;;;;;;4989407;28;20034;-65
2023/06/09 11:02:11;;;;;;;6.03;5.53;;;20.10;99.90;;;;;;4988910;28;20042;-66
2023/06/09 11:04:45;;;;;;;5.47;4.90;;;20.20;99.90;;;;;;4986746;28;20058;-65
2023/06/09 11:07:15;;;;;;;5.65;5.15;;;20.20;99.90;;;;;;4988409;28;20828;-66
2023/06/09 11:10:00;;;;;;;4.85;4.45;;;20.30;99.90;;;;;;4995310;28;20072;-66
2023/06/09 11:12:38;;;;;;;5.03;4.60;;;20.30;99.90;;;;;;4984064;28;20041;-65
2023/06/09 11:15:09;;;;;;;6.10;5.50;;;20.50;99.90;;;;;;4999014;28;20062;-65
2023/06/09 11:17:37;;;;;;;4.78;4.38;;;20.60;99.90;;;;;;4992388;28;20503;-65
2023/06/09 11:20:09;;;;;;;4.47;4.18;;;20.60;99.90;;;;;;4991821;28;20588;-66
2023/06/09 11:23:01;;;;;;;4.80;4.40;;;20.60;99.90;;;;;;4979280;28;20034;-65
2023/06/09 11:25:27;;;;;;;4.53;4.13;;;20.60;99.90;;;;;;4978923;28;20069;-65
2023/06/09 11:27:59;;;;;;;4.28;3.88;;;20.70;99.90;;;;;;4990579;28;20049;-66
2023/06/09 11:30:26;;;;;;;4.07;3.77;;;20.70;99.90;;;;;;4989741;28;20073;-65
2023/06/09 11:33:03;;;;;;;4.50;4.10;;;20.80;99.90;;;;;;4988202;28;20299;-65
2023/06/09 11:35:28;;;;;;;4.05;3.75;;;20.90;99.90;;;;;;4993161;28;20152;-65
2023/06/09 11:38:05;;;;;;;3.70;3.40;;;20.90;99.90;;;;;;4993796;28;20033;-65
2023/06/09 11:40:33;;;;;;;4.10;3.80;;;20.90;99.90;;;;;;4989406;28;20042;-65
2023/06/09 11:43:01;;;;;;;3.80;3.50;;;20.90;99.90;;;;;;4984241;28;20037;-66
2023/06/09 11:45:29;;;;;;;3.03;2.83;;;20.90;99.90;;;;;;4974223;28;20030;-65
2023/06/09 11:47:59;;;;;;;2.75;2.55;;;20.90;99.90;;;;;;4981220;28;20050;-66
2023/06/09 11:50:46;;;;;;;3.70;3.40;;;20.80;99.90;;;;;;4990998;28;20043;-66
2023/06/09 11:53:20;;;;;;;3.40;3.17;;;20.90;99.90;;;;;;4986678;28;20053;-66
2023/06/09 11:55:46;;;;;;;3.22;2.92;;;20.80;99.90;;;;;;4986792;28;20666;-66
2023/06/09 11:58:15;;;;;;;3.17;2.92;;;20.80;99.90;;;;;;4991523;28;20073;-66
2023/06/09 12:00:43;;;;;;;3.88;3.20;;;20.70;99.90;;;;;;4989486;28;20038;-66
2023/06/09 12:03:10;;;;;;;2.92;2.63;;;20.70;99.90;;;;;;4978961;28;20026;-66
2023/06/09 12:05:35;;;;;;;2.50;2.35;;;20.70;99.90;;;;;;4969828;28;20046;-66
2023/06/09 12:08:02;;;;;;;2.70;2.50;;;20.70;99.90;;;;;;4986031;28;20559;-66
2023/06/09 12:10:29;;;;;;;3.35;2.53;;;20.60;99.90;;;;;;4992448;28;20038;-66
2023/06/09 12:12:56;;;;;;;5.30;2.78;;;20.60;99.90;;;;;;4991736;28;20596;-66
2023/06/09 12:15:24;;;;;;;2.65;2.42;;;20.60;99.90;;;;;;4972730;28;20040;-66
2023/06/09 12:18:02;;;;;;;2.65;2.00;;;20.50;99.90;;;;;;4990242;28;20103;-66
2023/06/09 12:20:33;;;;;;;3.08;2.45;;;20.60;99.90;;;;;;4991543;28;20682;-66
2023/06/09 12:23:08;;;;;;;3.25;2.47;;;20.70;99.90;;;;;;4991570;28;20042;-66
2023/06/09 12:25:37;;;;;;;2.50;2.30;;;20.70;99.90;;;;;;4990289;28;20046;-66
2023/06/09 12:28:19;;;;;;;2.85;2.60;;;20.80;99.90;;;;;;4982650;28;20073;-66
2023/06/09 12:30:49;;;;;;;3.28;2.20;;;20.90;99.90;;;;;;4972409;28;20181;-66
2023/06/09 12:33:20;;;;;;;2.45;2.25;;;20.90;99.90;;;;;;4974895;28;20202;-66
2023/06/09 12:35:47;;;;;;;2.17;2.00;;;21.00;99.90;;;;;;4977223;28;20049;-62
2023/06/09 12:38:18;;;;;;;2.33;2.13;;;21.00;99.90;;;;;;4964795;28;20344;-66
2023/06/09 12:40:54;;;;;;;2.15;2.03;;;21.10;99.90;;;;;;4991183;28;20042;-66
2023/06/09 12:43:21;;;;;;;1.92;1.83;;;21.20;99.90;;;;;;4979241;28;20133;-66
2023/06/09 12:45:48;;;;;;;1.92;1.80;;;21.30;99.90;;;;;;4995118;28;20037;-66
2023/06/09 12:48:14;;;;;;;1.80;1.70;;;21.40;99.90;;;;;;4993959;28;20050;-66
2023/06/09 12:50:42;;;;;;;2.15;2.05;;;21.40;99.90;;;;;;4994382;28;20022;-66